Hydro-Met Data Report Part 5
Issued by NWS West Gulf RFC

Home |  Current Version |  Previous Version |  Text Only |  Print | Product List |  Glossary On
Versions: 1 2 3 4 5 6 7 8 9 10 11 12 13 14 15 16 17 18 19 20 21 22 23 24 25 26 27
102
SRUS54 KFWR 070439
RR5FWR
:Hourly Reservoir Discharges
:Data - USACE
.E ACTT2 20260506 Z DH0500 /DUE /QTIRZZZ /DIH+01 /0.02 /0.02 /0.02 /0.02 /0.02 /0.02 /0.02 /0.02 /0.02 /0.02 /0.02 /0.02 /0.02 /0.02 /0.02 /0.02 /0.02 /0.02 /0.02 /0.02 /0.02 /0.02 /0.02
.E ALAT2 20260506 Z DH0500 /DUE /QTIRZZZ /DIH+01 /0.0052 /0.0052 /0.0052 /0.0052 /0.0052 /0.0052 /0.0052 /0.0052 /0.0052 /0.0052 /0.0052 /0.0052 /0.0052 /0.0052 /0.0052 /0.0052 /0.0052 /0.0052 /0.0052 /0.0052 /0.0052 /0.0052
.E BLNT2 20260506 Z DH0500 /DUE /QTIRZZZ /DIH+01 /0.0605 /0.0605 /0.0605 /0.0605 /0.0605 /0.0605 /0.0605 /0.0605 /0.0605 /0.0605 /0.0605 /0.0605 /0.0605 /0.0605 /0.0605 /0.0605 /0.0605 /0.0605 /0.0605 /0.0605 /0.0605 /0.0605 /0.0605
.E GGLT2 20260506 Z DH0500 /DUE /QTIRZZZ /DIH+01 /0.0 /0.0 /0.0 /0.0 /0.0 /0.0 /0.0 /0.0 /0.0 /0.0 /0.0 /0.0 /0.0 /0.0 /0.0 /0.0 /0.0 /0.0 /0.0 /0.0 /0.0 /0.0 /0.0
.E GNGT2 20260506 Z DH0500 /DUE /QTIRZZZ /DIH+01 /0.527 /0.527 /0.527 /0.5269 /0.5269 /0.5268 /0.5268 /0.5267 /0.5266 /0.5266 /0.5265 /0.3667 /0.3666 /0.3666 /0.3665 /0.3665 /0.3664 /0.3664 /0.3664 /0.3663 /0.3663 /0.3663 /0.3662
.E PCTT2 20260506 Z DH0500 /DUE /QTIRZZZ /DIH+01 /0.003 /0.003 /0.003 /0.003 /0.003 /0.003 /0.003 /0.003 /0.003 /0.003 /0.003 /0.003 /0.003 /0.003 /0.003 /0.003 /0.003 /0.003 /0.003 /0.003 /0.003 /0.003
.E SOMT2 20260506 Z DH0500 /DUE /QTIRZZZ /DIH+01 /0.001 /0.001 /0.001 /0.001 /0.001 /0.001 /0.001 /0.001 /0.001 /0.001 /0.001 /0.001 /0.001 /0.001 /0.001 /0.001 /0.001 /0.001 /0.001 /0.001 /0.001 /0.001 /0.001
.E STIT2 20260506 Z DH0500 /DUE /QTIRZZZ /DIH+01 /0.001 /0.001 /0.001 /0.001 /0.001 /0.001 /0.001 /0.001 /0.001 /0.001 /0.001 /0.001 /0.001 /0.001 /0.001 /0.001 /0.001 /0.001 /0.001 /0.001 /0.001 /0.001 /0.001
.E WTYT2 20260506 Z DH0500 /DUE /QTIRZZZ /DIH+01 /0.05 /0.05 /0.05 /0.05 /0.05 /0.05 /0.05 /0.05 /0.05 /0.05 /0.05 /0.05 /0.05 /0.05 /0.05 /0.05 /0.05 /0.05 /0.05 /0.05 /0.05 /0.05
.E HORT2 20260506 Z DH0500 /DUE /QTIRZZZ /DIH+01 /0.0 /0.0 /0.0 /0.0 /0.0 /0.0 /0.0 /0.0 /0.0 /0.0 /0.0 /0.0 /0.0 /0.0 /0.0 /0.0 /0.0 /0.0 /0.0 /0.0 /0.0 /0.0
.E SAGT2 20260506 Z DH0500 /DUE /QTIRZZZ /DIH+01 /0.001 /0.001 /0.001 /0.001 /0.001 /0.001 /0.001 /0.001 /0.001 /0.001 /0.001 /0.001 /0.001 /0.001 /0.001 /0.001 /0.001 /0.001 /0.001 /0.001 /0.001 /0.001 /0.001
.E TBRT2 20260506 Z DH0500 /DUE /QTIRZZZ /DIH+01 /0.0 /0.0 /0.0 /0.0 /0.0 /0.0 /0.0 /0.0 /0.0 /0.0 /0.0 /0.0 /0.0 /0.0 /0.0 /0.0 /0.0 /0.0 /0.0 /0.0 /0.0 /0.0 /0.0
.E SMCT2 20260506 Z DH0500 /DUE /QTIRZZZ /DIH+01 /0.0917 /0.0917 /0.0917 /0.0917 /0.0917 /0.0917 /0.0917 /0.0917 /0.0917 /0.0917 /0.0917 /0.0917 /0.0917 /0.0917 /0.0917 /0.0917 /0.0917 /0.0917 /0.0917 /0.0917 /0.0917 /0.0917 /0.0917
.E JSPT2 20260506 Z DH0500 /DUE /QTIRZZZ /DIH+01 /0.0 /0.0 /0.0 /0.0 /0.0 /0.0 /0.0 /0.0 /0.0 /0.0 /0.0 /0.0 /0.0 /0.0 /0.0 /0.0 /0.0 /0.0 /0.0 /0.0 /0.0 /0.0 /0.0
.E TBLT2 20260506 Z DH0500 /DUE /QTIRZZZ /DIH+01 /1.4 /1.4 /1.4 /1.4 /1.4 /1.4 /1.4 /1.4 /1.4 /1.4 /1.4 /1.4 /1.4 /1.4 /1.4 /1.4 /1.4 /1.4 /1.4 /1.4 /1.4 /1.4 /1.4
.E BSLT2 20260506 Z DH0500 /DUE /QTIRZZZ /DIH+01 /0.005 /0.005 /0.005 /0.005 /0.005 /0.005 /0.005 /0.005 /0.005 /0.005 /0.005 /0.005 /0.005 /0.005 /0.005 /0.005 /0.005 /0.005 /0.005 /0.005 /0.005 /0.005 /0.005
.E CLDL1 20260506 Z DH0500 /DUE /QTIRZZZ /DIH+01 /1.3611 /1.3602 /1.3594 /1.3586 /1.3577 /1.3569 /1.3561 /1.3552 /1.3544 /1.536 /1.344 /1.472 /1.472 /1.344 /1.28 /1.12 /1.184 /1.28 /1.216 /1.376 /1.216 /1.312 /1.216
.E JFNT2 20260506 Z DH0500 /DUE /QTIRZZZ /DIH+01 /0.001 /0.001 /0.001 /0.001 /0.001 /0.001 /0.001 /0.001 /0.001 /0.001 /0.001 /0.001 /0.001 /0.001 /0.001 /0.001 /0.001 /0.001 /0.001 /0.001 /0.001 /0.001
.E SCLT2 20260506 Z DH0500 /DUE /QTIRZZZ /DIH+01 /0.0053 /0.0053 /0.0053 /0.0053 /0.0053 /0.0053 /0.0053 /0.0053 /0.0053 /0.0053 /0.0053 /0.0053 /0.0053 /0.0053 /0.0053 /0.0053 /0.0053 /0.0053 /0.0053 /0.0053 /0.0053 /0.0053 /0.0053
.E TXKT2 20260506 Z DH0500 /DUE /QTIRZZZ /DIH+01 /0.001 /0.001 /0.001 /0.001 /0.001 /0.001 /0.001 /0.001 /0.001 /0.001 /0.001 /0.001 /0.001 /0.001 /0.001 /0.001 /0.001 /0.001 /0.001 /0.001 /0.001 /0.001 /0.001
.E BDWT2 20260506 Z DH0500 /DUE /QTIRZZZ /DIH+01 /0.0902 /0.0902 /0.0902 /0.0902 /0.0902 /0.0902 /0.0902 /0.0902 /0.0902 /0.0902 /0.0902 /0.0902 /0.0902 /0.0902 /0.0902 /0.0902 /0.0902 /0.0902 /0.0902 /0.0901 /0.0901 /0.0901
.E BNBT2 20260506 Z DH0500 /DUE /QTIRZZZ /DIH+01 /0.003 /0.003 /0.003 /0.003 /0.003 /0.003 /0.003 /0.003 /0.003 /0.003 /0.003 /0.003 /0.003 /0.003 /0.003 /0.003 /0.003 /0.003 /0.003 /0.003 /0.003 /0.003 /0.003
.E DAWT2 20260506 Z DH0500 /DUE /QTIRZZZ /DIH+01 /0.0 /0.0 /0.0 /0.0 /0.0 /0.0 /0.0 /0.0 /0.0 /0.0 /0.0 /0.0 /0.0 /0.0 /0.0 /0.0 /0.0 /0.0 /0.0 /0.0 /0.0 /0.0 /0.0
.E GPVT2 20260506 Z DH0500 /DUE /QTIRZZZ /DIH+01 /0.4202 /0.4202 /0.4202 /0.4202 /0.4202 /0.4202 /0.4201 /0.4201 /0.4201 /0.4199 /0.42 /0.4201 /0.4201 /0.42 /0.42 /0.4201 /0.4201 /0.42 /0.42 /0.42 /0.4199 /0.42
.E JPLT2 20260506 Z DH0500 /DUE /QTIRZZZ /DIH+01 /0.2297 /0.2297 /0.2297 /0.2297 /0.2297 /0.2297 /0.2297 /0.2297 /0.2297 /0.2297 /0.2297 /0.2296 /0.2297 /0.2296 /0.2297 /0.2297 /0.2296 /0.2296 /0.2296 /0.2296 /0.2296 /0.2296 /0.2296
.E LEWT2 20260506 Z DH0500 /DUE /QTIRZZZ /DIH+01 /0.0586 /0.0586 /0.0586 /0.0586 /0.0586 /0.0586 /0.0586 /0.0586 /0.0586 /0.0586 /0.0586 /0.0586 /0.0586 /0.0586 /0.0586 /0.0586 /0.0586 /0.0586 /0.0586 /0.0586 /0.0586 /0.0586
.E LVNT2 20260506 Z DH0500 /DUE /QTIRZZZ /DIH+01 /0.001 /0.001 /0.001 /0.001 /0.001 /0.001 /0.001 /0.001 /0.001 /0.001 /0.001 /0.001 /0.001 /0.001 /0.001 /0.001 /0.001 /0.001 /0.001 /0.001 /0.001 /0.001 /0.001
.E RRLT2 20260506 Z DH0500 /DUE /QTIRZZZ /DIH+01 /0.0253 /0.0253 /0.0253 /0.0253 /0.0253 /0.0253 /0.0253 /0.0253 /0.0253 /0.0253 /0.0253 /0.0253 /0.0253 /0.0253 /0.0253 /0.0253 /0.0253 /0.0253 /0.0253 /0.0253 /0.0253 /0.0253

$$